Time;durP1;ratioP1;P1;durP2;ratioP2;P2;SDS_P1;SDS_P2;PMS_P1;PMS_P2;Temp;Humidity;BMP_temperature;BMP_pressure;BME280_temperature;BME280_humidity;BME280_pressure;Samples;Min_cycle;Max_cycle;Signal;HPM_P1;HPM_P2
2024/01/02 00:01:53;;;;;;;87.43;58.70;;;;;;;;;;5048205;28;20507;-69
2024/01/02 00:04:57;;;;;;;96.93;59.85;;;;;;;;;;5047549;28;20403;-69
2024/01/02 00:08:01;;;;;;;88.45;59.20;;;;;;;;;;5047688;28;20048;-69
2024/01/02 00:11:09;;;;;;;94.15;60.85;;;;;;;;;;5047990;28;20040;-69
2024/01/02 00:14:13;;;;;;;93.90;60.45;;;;;;;;;;5048004;28;20051;-69
2024/01/02 00:17:17;;;;;;;95.70;61.10;;;;;;;;;;5047594;28;20044;-69
2024/01/02 00:20:21;;;;;;;98.40;60.95;;;;;;;;;;5047909;28;20044;-69
2024/01/02 00:23:26;;;;;;;88.40;58.38;;;;;;;;;;5047878;28;20048;-69
2024/01/02 00:26:30;;;;;;;91.18;56.25;;;;;;;;;;5047524;28;20079;-69
2024/01/02 00:29:34;;;;;;;86.35;55.78;;;;;;;;;;5095174;28;20044;-69
2024/01/02 00:32:38;;;;;;;81.00;52.72;;;;;;;;;;5047864;28;20067;-69
2024/01/02 00:35:43;;;;;;;84.45;55.92;;;;;;;;;;5047561;28;20044;-69
2024/01/02 00:38:47;;;;;;;86.22;56.80;;;;;;;;;;5047512;28;20040;-69
2024/01/02 00:41:52;;;;;;;88.05;60.20;;;;;;;;;;5047464;28;20044;-69
2024/01/02 00:44:56;;;;;;;91.97;60.47;;;;;;;;;;5047385;28;20044;-69
2024/01/02 00:48:00;;;;;;;91.78;59.55;;;;;;;;;;5047711;28;20054;-69
2024/01/02 00:51:05;;;;;;;90.47;59.42;;;;;;;;;;5095262;28;20048;-69
2024/01/02 00:54:09;;;;;;;89.55;59.53;;;;;;;;;;5095033;28;20067;-69
2024/01/02 00:57:13;;;;;;;91.97;61.67;;;;;;;;;;5047537;28;20043;-69
2024/01/02 01:00:18;;;;;;;97.47;61.38;;;;;;;;;;5094994;28;20392;-69
2024/01/02 01:03:22;;;;;;;97.82;60.08;;;;;;;;;;5047487;28;20106;-69
2024/01/02 01:06:26;;;;;;;96.03;63.70;;;;;;;;;;5047143;28;20068;-69
2024/01/02 01:09:31;;;;;;;113.25;70.72;;;;;;;;;;5047068;28;20045;-69
2024/01/02 01:12:37;;;;;;;104.20;70.13;;;;;;;;;;5094972;28;20120;-69
2024/01/02 01:15:42;;;;;;;106.07;67.03;;;;;;;;;;5047157;28;20503;-69
2024/01/02 01:18:46;;;;;;;99.78;64.15;;;;;;;;;;5050022;28;20110;-69
2024/01/02 01:21:51;;;;;;;110.45;66.22;;;;;;;;;;5098202;27;20044;-69
2024/01/02 01:24:55;;;;;;;98.40;60.08;;;;;;;;;;5050076;28;20048;-69
2024/01/02 01:27:59;;;;;;;86.85;59.38;;;;;;;;;;5050525;28;20390;-69
2024/01/02 01:31:04;;;;;;;93.95;58.42;;;;;;;;;;5050023;28;20048;-69
2024/01/02 01:34:08;;;;;;;104.03;61.08;;;;;;;;;;5050193;28;20048;-69
2024/01/02 01:37:12;;;;;;;89.97;56.88;;;;;;;;;;5050472;28;20106;-69
2024/01/02 01:40:17;;;;;;;77.65;54.13;;;;;;;;;;5049986;28;20040;-69
2024/01/02 01:43:21;;;;;;;84.28;52.42;;;;;;;;;;5050359;28;20106;-69
2024/01/02 01:46:39;;;;;;;87.95;58.75;;;11.80;99.90;;;;;;5050103;28;20056;-69
2024/01/02 01:49:44;;;;;;;89.43;52.17;;;;;;;;;;5097755;27;20044;-69
2024/01/02 01:52:48;;;;;;;85.65;51.25;;;;;;;;;;5049927;28;20044;-69
2024/01/02 01:55:52;;;;;;;82.93;51.03;;;;;;;;;;5049909;28;20653;-69
2024/01/02 01:58:56;;;;;;;81.32;52.78;;;;;;;;;;5097672;27;20060;-69
2024/01/02 02:02:01;;;;;;;73.85;46.13;;;;;;;;;;5098110;27;20482;-69
2024/01/02 02:05:06;;;;;;;73.13;44.75;;;12.00;99.90;;;;;;5049889;28;20040;-69
2024/01/02 02:08:11;;;;;;;67.55;41.10;;;;;;;;;;5049906;28;20048;-69
2024/01/02 02:11:15;;;;;;;61.00;32.63;;;;;;;;;;5049349;28;20040;-69
2024/01/02 02:14:19;;;;;;;68.75;35.33;;;;;;;;;;5049579;28;20048;-69
2024/01/02 02:17:23;;;;;;;67.15;34.00;;;;;;;;;;5049246;28;20056;-69
2024/01/02 02:20:30;;;;;;;58.30;33.05;;;;;;;;;;5095465;27;20041;-69
2024/01/02 02:23:35;;;;;;;60.80;33.40;;;;;;;;;;5096741;27;20048;-68
2024/01/02 02:26:39;;;;;;;67.30;37.53;;;;;;;;;;5048916;28;20487;-69
2024/01/02 02:29:43;;;;;;;68.88;41.50;;;;;;;;;;5096106;27;20040;-69
2024/01/02 02:32:47;;;;;;;68.35;41.47;;;;;;;;;;5096537;27;20048;-68
2024/01/02 02:35:52;;;;;;;65.55;41.92;;;;;;;;;;5048932;28;20048;-68
2024/01/02 02:38:56;;;;;;;61.60;40.10;;;;;;;;;;5048811;28;20055;-69
2024/01/02 02:42:00;;;;;;;67.82;39.88;;;;;;;;;;5048950;28;20036;-68
2024/01/02 02:45:06;;;;;;;64.55;38.78;;;12.10;99.90;;;;;;5048877;28;20052;-69
2024/01/02 02:48:10;;;;;;;75.65;41.10;;;;;;;;;;5048673;28;20048;-69
2024/01/02 02:51:14;;;;;;;62.40;37.63;;;;;;;;;;5048635;28;20075;-69
2024/01/02 02:54:19;;;;;;;64.82;38.97;;;;;;;;;;5048883;28;20044;-69
2024/01/02 02:57:24;;;;;;;60.15;36.58;;;;;;;;;;5048840;28;20673;-69
2024/01/02 03:00:28;;;;;;;63.03;37.60;;;;;;;;;;5095883;27;20076;-69
2024/01/02 03:03:32;;;;;;;55.92;33.95;;;;;;;;;;5048761;28;20044;-69
2024/01/02 03:06:37;;;;;;;61.17;34.08;;;;;;;;;;5048304;28;20052;-68
2024/01/02 03:09:44;;;;;;;54.75;29.55;;;;;;;;;;5096255;27;20051;-69
2024/01/02 03:12:48;;;;;;;49.33;29.67;;;;;;;;;;5048648;28;20048;-69
2024/01/02 03:15:52;;;;;;;49.72;28.77;;;;;;;;;;5048632;28;20063;-69
2024/01/02 03:18:56;;;;;;;47.90;26.80;;;;;;;;;;5048454;28;20048;-68
2024/01/02 03:22:01;;;;;;;57.60;25.55;;;;;;;;;;5048123;28;20044;-68
2024/01/02 03:25:06;;;;;;;50.40;25.48;;;;;;;;;;5048434;28;20040;-69
2024/01/02 03:28:10;;;;;;;46.15;25.88;;;;;;;;;;5048105;28;20110;-69
2024/01/02 03:31:14;;;;;;;42.40;23.75;;;;;;;;;;5048159;28;20071;-69
2024/01/02 03:34:19;;;;;;;48.38;25.10;;;;;;;;;;5048066;28;20154;-69
2024/01/02 03:37:23;;;;;;;44.05;24.60;;;;;;;;;;5047876;28;20040;-68
2024/01/02 03:40:27;;;;;;;46.10;25.40;;;;;;;;;;5047076;28;20071;-69
2024/01/02 03:43:31;;;;;;;40.20;24.38;;;;;;;;;;5047970;28;20048;-69
2024/01/02 03:46:36;;;;;;;45.10;25.85;;;;;;;;;;5047794;28;20056;-69
2024/01/02 03:49:41;;;;;;;47.08;27.48;;;;;;;;;;5047882;28;20044;-69
2024/01/02 03:52:45;;;;;;;52.20;28.80;;;;;;;;;;5047799;28;20052;-69
2024/01/02 03:55:50;;;;;;;48.03;27.05;;;;;;;;;;5047979;28;20047;-69
2024/01/02 03:58:54;;;;;;;45.47;27.40;;;;;;;;;;5047649;28;20052;-68
2024/01/02 04:01:59;;;;;;;52.63;28.55;;;;;;;;;;5047944;28;20039;-69
2024/01/02 04:05:03;;;;;;;59.63;28.23;;;;;;;;;;5047837;28;20052;-69
2024/01/02 04:08:07;;;;;;;51.42;27.80;;;;;;;;;;5095443;27;20048;-69
2024/01/02 04:11:13;;;;;;;46.10;27.15;;;;;;;;;;5047782;28;20044;-69
2024/01/02 04:14:17;;;;;;;49.83;29.65;;;;;;;;;;5047443;28;20048;-68
2024/01/02 04:17:22;;;;;;;49.63;30.13;;;;;;;;;;5047452;28;20051;-69
2024/01/02 04:20:26;;;;;;;53.90;30.73;;;;;;;;;;5047595;28;20048;-69
2024/01/02 04:23:30;;;;;;;53.15;29.63;;;;;;;;;;5047323;28;20044;-69
2024/01/02 04:26:35;;;;;;;51.50;29.42;;;;;;;;;;5047309;28;20353;-69
2024/01/02 04:29:42;;;;;;;50.67;26.70;;;;;;;;;;5047383;28;20507;-69
2024/01/02 04:32:47;;;;;;;62.70;32.40;;;;;;;;;;5047339;28;20067;-69
2024/01/02 04:35:51;;;;;;;56.60;28.25;;;;;;;;;;5047605;28;20044;-69
2024/01/02 04:38:55;;;;;;;52.63;27.95;;;;;;;;;;5047189;28;20500;-69
2024/01/02 04:42:02;;;;;;;52.88;26.23;;;11.90;99.90;;;;;;5046951;28;20404;-69
2024/01/02 04:45:09;;;;;;;51.75;25.25;;;;;;;;;;5047344;28;20649;-69
2024/01/02 04:48:13;;;;;;;44.67;24.88;;;;;;;;;;5047025;28;20056;-69
2024/01/02 04:51:17;;;;;;;43.80;23.92;;;;;;;;;;5095287;27;20052;-68
2024/01/02 04:54:21;;;;;;;44.33;24.52;;;;;;;;;;5050690;28;20052;-68
2024/01/02 04:57:26;;;;;;;52.10;26.42;;;;;;;;;;5050286;28;20044;-69
2024/01/02 05:00:30;;;;;;;46.08;25.13;;;;;;;;;;5050351;28;20040;-69
2024/01/02 05:03:35;;;;;;;43.10;24.60;;;;;;;;;;5050603;28;20048;-68
2024/01/02 05:06:39;;;;;;;45.50;26.17;;;;;;;;;;5050164;28;20056;-69
2024/01/02 05:09:43;;;;;;;49.20;25.48;;;;;;;;;;5050411;28;20048;-69
2024/01/02 05:12:50;;;;;;;45.42;24.75;;;;;;;;;;5050170;28;20056;-69
2024/01/02 05:15:55;;;;;;;46.38;26.27;;;;;;;;;;5098324;27;20048;-69
2024/01/02 05:18:59;;;;;;;48.85;24.73;;;;;;;;;;5050114;28;20071;-69
2024/01/02 05:22:03;;;;;;;36.70;22.48;;;;;;;;;;5050199;28;20048;-69
2024/01/02 05:25:08;;;;;;;43.70;22.98;;;;;;;;;;5098062;27;20056;-69
2024/01/02 05:28:12;;;;;;;43.17;23.75;;;;;;;;;;5097910;27;20044;-69
2024/01/02 05:31:16;;;;;;;40.42;22.30;;;;;;;;;;5050028;28;20040;-69
2024/01/02 05:34:21;;;;;;;47.63;21.88;;;;;;;;;;5050360;28;20040;-69
2024/01/02 05:37:25;;;;;;;34.13;19.35;;;;;;;;;;5050143;28;20048;-68
2024/01/02 05:40:29;;;;;;;40.25;19.58;;;;;;;;;;5050220;28;20133;-69
2024/01/02 05:43:34;;;;;;;35.30;18.88;;;11.30;99.90;;;;;;5050296;28;20546;-69
2024/01/02 05:46:38;;;;;;;39.78;18.27;;;;;;;;;;5050023;28;20079;-69
2024/01/02 05:49:43;;;;;;;38.58;15.93;;;;;;;;;;5049900;28;20619;-68
2024/01/02 05:52:47;;;;;;;31.73;14.73;;;;;;;;;;5050225;28;20043;-68
2024/01/02 05:55:51;;;;;;;33.95;12.50;;;;;;;;;;5050083;28;20052;-69
2024/01/02 05:58:56;;;;;;;32.22;14.75;;;;;;;;;;5049924;28;20040;-68
2024/01/02 06:02:00;;;;;;;32.63;14.13;;;;;;;;;;5049510;28;20051;-68
2024/01/02 06:05:05;;;;;;;32.28;15.45;;;;;;;;;;5049940;28;20052;-69
2024/01/02 06:08:09;;;;;;;42.25;18.85;;;;;;;;;;5049936;28;20056;-68
2024/01/02 06:11:13;;;;;;;38.85;16.55;;;;;;;;;;5049607;28;20040;-69
2024/01/02 06:14:18;;;;;;;39.45;15.02;;;;;;;;;;5049801;28;20044;-68
2024/01/02 06:17:22;;;;;;;29.73;13.52;;;;;;;;;;5049642;28;20503;-68
2024/01/02 06:20:26;;;;;;;32.53;13.35;;;;;;;;;;5097213;27;20392;-69
2024/01/02 06:23:31;;;;;;;25.50;13.73;;;11.70;99.90;;;;;;5049451;28;20036;-68
2024/01/02 06:26:35;;;;;;;24.92;13.23;;;;;;;;;;5049513;28;20071;-69
2024/01/02 06:29:40;;;;;;;32.58;15.13;;;;;;;;;;5049473;28;20044;-68
2024/01/02 06:32:45;;;;;;;34.38;15.77;;;;;;;;;;5049305;28;20047;-69
2024/01/02 06:35:49;;;;;;;32.63;16.90;;;;;;;;;;5049425;28;20052;-69
2024/01/02 06:38:53;;;;;;;33.65;16.17;;;;;;;;;;5049415;28;20044;-68
2024/01/02 06:41:57;;;;;;;33.35;16.48;;;;;;;;;;5096971;27;20044;-69
2024/01/02 06:45:02;;;;;;;34.72;17.23;;;;;;;;;;5048957;28;20036;-69
2024/01/02 06:48:06;;;;;;;34.63;17.15;;;;;;;;;;5048864;28;20048;-69
2024/01/02 06:51:10;;;;;;;39.38;18.58;;;;;;;;;;5049230;28;20044;-69
2024/01/02 06:54:15;;;;;;;31.42;17.65;;;;;;;;;;5049157;28;20052;-64
2024/01/02 06:57:19;;;;;;;34.05;18.42;;;;;;;;;;5048879;28;20511;-63
2024/01/02 07:00:24;;;;;;;41.15;19.73;;;;;;;;;;5048724;28;20067;-63
2024/01/02 07:03:28;;;;;;;33.95;18.38;;;;;;;;;;5048975;28;20056;-64
2024/01/02 07:06:33;;;;;;;40.22;19.17;;;;;;;;;;5048669;28;20117;-64
2024/01/02 07:09:37;;;;;;;35.78;19.20;;;;;;;;;;5048756;28;20050;-64
2024/01/02 07:12:41;;;;;;;42.03;19.77;;;;;;;;;;5048514;28;20047;-64
2024/01/02 07:15:46;;;;;;;39.55;20.67;;;;;;;;;;5047767;28;20048;-64
2024/01/02 07:18:51;;;;;;;42.47;20.35;;;;;;;;;;5048081;28;20043;-64
2024/01/02 07:21:56;;;;;;;39.78;19.65;;;;;;;;;;5048830;28;20541;-65
2024/01/02 07:25:00;;;;;;;36.60;20.88;;;;;;;;;;5096026;27;20542;-66
2024/01/02 07:28:05;;;;;;;34.75;20.15;;;;;;;;;;5048819;28;20068;-64
2024/01/02 07:31:10;;;;;;;48.65;20.40;;;11.50;99.90;;;;;;5049073;28;20059;-64
2024/01/02 07:34:15;;;;;;;39.50;19.52;;;;;;;;;;5048428;28;20056;-65
2024/01/02 07:37:19;;;;;;;46.53;23.67;;;;;;;;;;5048418;28;20503;-65
2024/01/02 07:40:24;;;;;;;45.33;23.08;;;;;;;;;;5047974;28;20048;-64
2024/01/02 07:43:30;;;;;;;46.17;22.48;;;;;;;;;;5048580;28;20052;-64
2024/01/02 07:46:34;;;;;;;46.30;22.20;;;;;;;;;;5048337;28;20400;-65
2024/01/02 07:49:38;;;;;;;50.72;20.27;;;;;;;;;;5048047;28;20064;-64
2024/01/02 07:52:47;;;;;;;40.15;19.30;;;11.80;99.90;;;;;;5048476;28;20044;-65
2024/01/02 07:55:51;;;;;;;48.40;21.35;;;;;;;;;;5048062;28;20040;-66
2024/01/02 07:58:56;;;;;;;41.40;20.05;;;;;;;;;;5048055;28;20052;-66
2024/01/02 08:02:00;;;;;;;50.70;22.23;;;;;;;;;;5047804;28;20052;-64
2024/01/02 08:05:04;;;;;;;36.65;20.05;;;;;;;;;;5047885;28;20639;-69
2024/01/02 08:08:08;;;;;;;36.85;20.60;;;;;;;;;;5047791;28;20060;-69
2024/01/02 08:11:14;;;;;;;38.17;18.73;;;;;;;;;;5047964;28;20048;-72
2024/01/02 08:14:18;;;;;;;36.22;19.95;;;;;;;;;;5095006;28;20043;-69
2024/01/02 08:17:23;;;;;;;42.13;21.23;;;;;;;;;;5047661;28;20052;-66
2024/01/02 08:20:30;;;;;;;37.67;20.30;;;;;;;;;;5047808;28;20408;-65
2024/01/02 08:23:40;;;;;;;44.78;21.88;;;12.50;99.90;;;;;;5047735;28;20048;-65
2024/01/02 08:26:44;;;;;;;41.80;19.23;;;;;;;;;;5049991;28;20241;-67
2024/01/02 08:29:49;;;;;;;34.35;19.73;;;;;;;;;;5050894;28;20043;-66
2024/01/02 08:32:53;;;;;;;33.63;17.73;;;;;;;;;;5051076;28;20044;-67
2024/01/02 08:35:58;;;;;;;41.10;20.23;;;;;;;;;;5051183;28;20048;-67
2024/01/02 08:39:03;;;;;;;38.97;18.70;;;;;;;;;;5051288;28;20048;-66
2024/01/02 08:42:07;;;;;;;35.08;17.83;;;;;;;;;;5050699;28;20036;-66
2024/01/02 08:45:12;;;;;;;39.28;20.23;;;;;;;;;;5098705;27;20508;-66
2024/01/02 08:48:17;;;;;;;33.20;20.00;;;12.20;99.90;;;;;;5050641;28;20420;-66
2024/01/02 08:51:22;;;;;;;37.92;19.58;;;;;;;;;;5051110;28;20040;-66
2024/01/02 08:54:27;;;;;;;32.13;16.38;;;;;;;;;;5050647;28;20052;-66
2024/01/02 08:57:31;;;;;;;32.17;16.40;;;;;;;;;;5050915;28;20040;-68
2024/01/02 09:00:35;;;;;;;34.20;15.10;;;;;;;;;;5050545;28;20052;-67
2024/01/02 09:03:40;;;;;;;35.00;12.25;;;;;;;;;;5050790;28;20040;-67
2024/01/02 09:06:45;;;;;;;27.35;11.50;;;16.50;99.90;;;;;;5050382;28;20036;-67
2024/01/02 09:09:49;;;;;;;22.60;7.63;;;;;;;;;;5049953;28;20056;-67
2024/01/02 09:12:53;;;;;;;23.25;5.75;;;;;;;;;;5050690;28;20040;-67
2024/01/02 09:15:57;;;;;;;25.38;5.85;;;;;;;;;;5050571;28;20044;-67
2024/01/02 09:19:02;;;;;;;19.35;4.85;;;;;;;;;;5050301;28;20503;-67
2024/01/02 09:22:08;;;;;;;18.77;4.82;;;;;;;;;;5050532;28;20044;-67
2024/01/02 09:25:16;;;;;;;16.45;5.13;;;13.20;99.90;;;;;;5098478;27;20055;-67
2024/01/02 09:28:21;;;;;;;18.05;5.47;;;;;;;;;;5049907;28;20064;-67
2024/01/02 09:31:29;;;;;;;15.68;4.50;;;;;;;;;;5050428;28;20349;-67
2024/01/02 09:34:33;;;;;;;19.08;4.65;;;;;;;;;;5050028;28;20048;-66
2024/01/02 09:37:37;;;;;;;22.58;4.75;;;;;;;;;;5049307;28;20044;-65
2024/01/02 09:41:12;;;;;;;18.27;3.80;;;16.40;99.90;;;;;;5050046;28;20052;-66
2024/01/02 09:44:38;;;;;;;13.95;4.90;;;16.40;99.90;;;;;;5050108;28;20052;-65
2024/01/02 09:47:51;;;;;;;25.17;4.57;;;;;;;;;;5049973;28;20052;-66
2024/01/02 09:51:07;;;;;;;12.80;3.95;;;16.60;99.90;;;;;;5050186;28;20056;-66
2024/01/02 09:54:27;;;;;;;14.60;3.95;;;16.80;99.90;;;;;;5049744;28;20048;-68
2024/01/02 09:57:46;;;;;;;16.83;5.00;;;17.00;99.90;;;;;;5097559;27;20044;-66
2024/01/02 10:01:24;;;;;;;17.75;5.10;;;17.10;99.90;;;;;;5049969;28;20040;-66
2024/01/02 10:04:43;;;;;;;16.67;5.38;;;;;;;;;;5049507;28;20396;-65
2024/01/02 10:08:04;;;;;;;18.15;4.65;;;16.70;99.50;;;;;;5049548;28;20056;-65
2024/01/02 10:11:38;;;;;;;16.98;5.28;;;15.50;99.70;;;;;;5049708;28;20110;-66
2024/01/02 10:14:58;;;;;;;13.52;4.15;;;17.40;99.90;;;;;;5049574;28;20048;-67
2024/01/02 10:18:11;;;;;;;25.58;4.65;;;15.30;99.90;;;;;;5049286;28;20056;-65
2024/01/02 10:21:40;;;;;;;18.55;4.18;;;15.20;99.90;;;;;;5049698;28;20052;-64
2024/01/02 10:24:45;;;;;;;14.20;4.05;;;;;;;;;;5049188;28;20075;-64
2024/01/02 10:28:15;;;;;;;14.70;4.13;;;17.10;99.90;;;;;;5049194;28;20063;-65
2024/01/02 10:31:21;;;;;;;11.18;3.92;;;;;;;;;;5049427;28;20048;-64
2024/01/02 10:34:41;;;;;;;16.00;3.85;;;17.30;99.90;;;;;;5049490;28;20062;-64
2024/01/02 10:38:21;;;;;;;15.23;3.88;;;17.50;99.40;;;;;;5096983;27;20143;-65
2024/01/02 10:41:46;;;;;;;21.17;3.92;;;18.10;98.20;;;;;;5085855;27;20686;-64
2024/01/02 10:44:54;;;;;;;10.27;2.65;;;;;;;;;;5048910;28;20607;-65
2024/01/02 10:47:58;;;;;;;13.07;2.67;;;;;;;;;;5048232;28;20047;-65
2024/01/02 10:51:10;;;;;;;10.70;2.60;;;;;;;;;;5048319;28;20044;-64
2024/01/02 10:54:20;;;;;;;16.08;3.75;;;;;;;;;;5049020;28;20047;-65
2024/01/02 10:57:37;;;;;;;14.98;2.53;;;;;;;;;;5049249;28;20687;-65
2024/01/02 11:01:08;;;;;;;11.90;2.58;;;;;;;;;;5048974;28;20056;-65
2024/01/02 11:04:47;;;;;;;17.33;2.75;;;18.50;94.30;;;;;;5048729;28;20052;-65
2024/01/02 11:08:00;;;;;;;11.38;3.20;;;18.50;94.60;;;;;;5074319;27;20396;-64
2024/01/02 11:11:05;;;;;;;14.00;2.63;;;;;;;;;;5048713;28;20396;-64
2024/01/02 11:14:12;;;;;;;11.32;2.58;;;;;;;;;;5048887;28;20051;-65
2024/01/02 11:17:18;;;;;;;10.43;2.15;;;;;;;;;;5048410;28;20508;-65
2024/01/02 11:20:29;;;;;;;15.10;2.45;;;18.70;94.70;;;;;;5048539;28;20048;-64
2024/01/02 11:23:46;;;;;;;12.48;3.25;;;18.30;94.20;;;;;;5048263;28;20396;-65
2024/01/02 11:26:50;;;;;;;10.40;2.78;;;;;;;;;;5096055;27;20044;-65
2024/01/02 11:29:54;;;;;;;16.85;2.70;;;;;;;;;;5048607;28;20044;-65
2024/01/02 11:32:59;;;;;;;12.18;2.70;;;;;;;;;;5048534;28;20040;-65
2024/01/02 11:36:05;;;;;;;12.95;2.33;;;17.30;93.80;;;;;;5048416;28;20044;-66
2024/01/02 11:39:13;;;;;;;11.55;2.95;;;17.70;94.20;;;;;;5048128;28;20040;-65
2024/01/02 11:42:26;;;;;;;10.95;2.22;;;;;;;;;;5048159;28;20051;-65
2024/01/02 11:45:36;;;;;;;19.10;3.58;;;19.40;95.00;;;;;;5048042;28;20044;-66
2024/01/02 11:49:01;;;;;;;16.35;2.38;;;;;;;;;;5047967;28;20067;-65
2024/01/02 11:52:15;;;;;;;14.63;3.00;;;18.20;94.60;;;;;;5047811;28;20424;-65
2024/01/02 11:55:23;;;;;;;10.55;2.70;;;;;;;;;;5048021;28;20113;-64
2024/01/02 11:58:31;;;;;;;21.40;2.85;;;;;;;;;;5047818;28;20044;-64
2024/01/02 12:01:50;;;;;;;12.63;2.65;;;;;;;;;;5047156;28;20052;-64
2024/01/02 12:05:09;;;;;;;12.77;2.53;;;;;;;;;;5046532;28;20417;-65
2024/01/02 12:08:15;;;;;;;18.95;3.30;;;;;;;;;;5046786;28;20044;-64
2024/01/02 12:11:20;;;;;;;18.25;2.80;;;;;;;;;;5046993;28;20036;-64
2024/01/02 12:14:24;;;;;;;14.68;3.28;;;;;;;;;;5047063;28;20044;-65
2024/01/02 12:17:33;;;;;;;12.90;2.42;;;19.00;95.90;;;;;;5047323;28;20051;-64
2024/01/02 12:20:46;;;;;;;12.63;3.03;;;17.40;95.50;;;;;;5047759;28;20074;-64
2024/01/02 12:23:53;;;;;;;14.75;2.90;;;;;;;;;;5047841;28;20460;-65
2024/01/02 12:26:59;;;;;;;7.82;2.47;;;;;;;;;;5047619;28;20052;-64
2024/01/02 12:30:05;;;;;;;23.15;3.58;;;;;;;;;;5047504;28;20049;-64
2024/01/02 12:33:11;;;;;;;16.73;2.80;;;;;;;;;;5047496;28;20044;-64
2024/01/02 12:36:24;;;;;;;13.90;3.10;;;;;;;;;;5094923;28;20052;-64
2024/01/02 12:39:32;;;;;;;13.02;2.92;;;18.00;96.20;;;;;;5047772;28;20052;-64
2024/01/02 12:42:43;;;;;;;7.78;2.10;;;;;;;;;;5048342;28;20048;-64
2024/01/02 12:45:51;;;;;;;11.52;2.88;;;;;;;;;;5047832;28;20555;-63
2024/01/02 12:49:28;;;;;;;7.15;1.90;;;16.20;95.70;;;;;;5093360;28;20060;-64
2024/01/02 12:52:52;;;;;;;11.82;2.60;;;;;;;;;;5047672;28;20143;-63
2024/01/02 12:56:00;;;;;;;15.32;3.75;;;17.30;96.30;;;;;;5047719;28;20052;-64
2024/01/02 12:59:08;;;;;;;13.63;2.80;;;17.20;96.30;;;;;;5047717;28;20044;-64
2024/01/02 13:02:13;;;;;;;13.18;3.55;;;;;;;;;;5047422;28;20400;-64
2024/01/02 13:05:18;;;;;;;12.68;2.90;;;;;;;;;;5047476;28;20068;-64
2024/01/02 13:08:22;;;;;;;17.88;2.70;;;;;;;;;;5047160;28;20118;-64
2024/01/02 13:11:26;;;;;;;17.65;3.00;;;;;;;;;;5047151;28;20052;-63
2024/01/02 13:14:32;;;;;;;11.68;2.75;;;;;;;;;;5050540;28;20047;-64
2024/01/02 13:17:36;;;;;;;6.00;1.88;;;;;;;;;;5050052;28;20052;-63
2024/01/02 13:20:40;;;;;;;10.05;2.20;;;;;;;;;;5098397;27;20033;-64
2024/01/02 13:24:03;;;;;;;19.40;2.75;;;17.10;96.40;;;;;;5050518;28;20040;-64
2024/01/02 13:27:08;;;;;;;7.95;2.15;;;;;;;;;;5050259;28;20400;-64
2024/01/02 13:30:12;;;;;;;11.80;3.42;;;;;;;;;;5050277;28;20381;-64
2024/01/02 13:33:22;;;;;;;15.05;2.70;;;;;;;;;;5050486;28;20044;-64
2024/01/02 13:36:27;;;;;;;12.77;2.57;;;;;;;;;;5050217;28;20048;-65
2024/01/02 13:39:39;;;;;;;11.40;2.40;;;17.80;96.70;;;;;;5050377;28;20044;-64
2024/01/02 13:42:43;;;;;;;14.93;3.13;;;;;;;;;;5050392;28;20048;-64
2024/01/02 13:45:48;;;;;;;11.18;2.92;;;;;;;;;;5050189;28;20040;-65
2024/01/02 13:48:57;;;;;;;16.20;2.80;;;16.30;96.70;;;;;;5049792;28;20052;-64
2024/01/02 13:52:02;;;;;;;14.30;2.97;;;;;;;;;;5097535;27;20044;-64
2024/01/02 13:55:10;;;;;;;13.02;2.55;;;;;;;;;;5048212;28;20051;-64
2024/01/02 13:58:15;;;;;;;12.63;3.42;;;;;;;;;;5049540;28;20396;-64
2024/01/02 14:01:28;;;;;;;15.40;3.70;;;;;;;;;;5049628;28;20448;-65
2024/01/02 14:04:32;;;;;;;12.48;3.55;;;;;;;;;;5049935;28;20052;-65
2024/01/02 14:07:41;;;;;;;13.52;2.78;;;;;;;;;;5049431;28;20644;-65
2024/01/02 14:10:46;;;;;;;14.00;3.20;;;;;;;;;;5050045;28;20040;-66
2024/01/02 14:13:55;;;;;;;15.85;3.03;;;;;;;;;;5049855;28;20036;-64
2024/01/02 14:17:00;;;;;;;13.98;3.17;;;;;;;;;;5049630;28;20060;-67
2024/01/02 14:20:10;;;;;;;17.95;4.22;;;;;;;;;;5096854;27;20056;-66
2024/01/02 14:23:35;;;;;;;24.48;3.53;;;16.80;97.60;;;;;;5049499;28;20117;-65
2024/01/02 14:26:52;;;;;;;23.08;3.33;;;15.70;97.40;;;;;;5049537;28;20491;-66
2024/01/02 14:30:12;;;;;;;17.40;3.55;;;;;;;;;;5049512;28;20060;-66
2024/01/02 14:33:38;;;;;;;14.98;3.63;;;16.70;97.80;;;;;;5049667;28;20064;-69
2024/01/02 14:36:42;;;;;;;12.32;2.47;;;;;;;;;;5049341;28;20044;-65
2024/01/02 14:39:49;;;;;;;17.58;3.10;;;;;;;;;;5049130;28;20507;-66
2024/01/02 14:43:22;;;;;;;18.45;4.55;;;16.50;98.00;;;;;;5049388;28;20052;-65
2024/01/02 14:46:27;;;;;;;16.15;3.65;;;;;;;;;;5096427;27;20044;-65
2024/01/02 14:49:35;;;;;;;19.55;3.50;;;;;;;;;;5049097;28;20404;-66
2024/01/02 14:52:39;;;;;;;16.13;3.97;;;;;;;;;;5047942;28;20052;-65
2024/01/02 14:55:43;;;;;;;12.52;3.45;;;;;;;;;;5047264;28;20044;-67
2024/01/02 14:59:06;;;;;;;14.52;3.40;;;18.40;99.00;;;;;;5047347;28;20048;-66
2024/01/02 15:02:10;;;;;;;16.95;3.83;;;;;;;;;;5048693;28;20499;-66
2024/01/02 15:05:14;;;;;;;17.30;3.08;;;;;;;;;;5049108;28;20033;-69
2024/01/02 15:08:50;;;;;;;18.55;3.08;;;12.60;98.30;;;;;;5048578;28;20056;-66
2024/01/02 15:12:36;;;;;;;17.10;4.13;;;16.40;99.20;;;;;;5049819;28;20085;-66
2024/01/02 15:16:11;;;;;;;14.15;3.60;;;;;;;;;;5049563;27;20392;-65
2024/01/02 15:19:30;;;;;;;19.48;3.83;;;19.70;99.90;;;;;;5048317;28;20055;-66
2024/01/02 15:22:49;;;;;;;26.73;4.90;;;16.00;99.80;;;;;;5095793;27;20052;-64
2024/01/02 15:26:05;;;;;;;18.25;4.18;;;16.10;99.70;;;;;;5048143;28;20040;-64
2024/01/02 15:29:11;;;;;;;20.42;4.70;;;15.90;99.90;;;;;;5047123;28;20075;-65
2024/01/02 15:32:16;;;;;;;20.08;4.60;;;;;;;;;;5047885;28;20157;-64
2024/01/02 15:35:24;;;;;;;30.67;6.07;;;;;;;;;;5046998;28;20044;-65
2024/01/02 15:38:31;;;;;;;18.17;4.35;;;;;;;;;;5047928;28;20048;-68
2024/01/02 15:41:40;;;;;;;23.65;6.55;;;;;;;;;;5048483;28;20130;-68
2024/01/02 15:45:15;;;;;;;26.13;5.97;;;;;;;;;;5048067;28;20040;-69
2024/01/02 15:48:36;;;;;;;18.30;4.68;;;15.90;99.90;;;;;;5048063;28;20518;-68
2024/01/02 15:51:42;;;;;;;18.65;5.80;;;;;;;;;;5048211;28;20507;-68
2024/01/02 15:54:51;;;;;;;28.83;7.35;;;;;;;;;;5048223;28;20044;-70
2024/01/02 15:57:56;;;;;;;27.90;7.13;;;;;;;;;;5048114;28;20052;-68
2024/01/02 16:01:02;;;;;;;25.95;8.40;;;;;;;;;;5046550;28;20047;-67
2024/01/02 16:04:30;;;;;;;29.25;8.93;;;15.60;99.90;;;;;;5046454;28;20052;-67
2024/01/02 16:08:01;;;;;;;28.52;8.75;;;;;;;;;;5094304;27;20056;-68
2024/01/02 16:11:08;;;;;;;32.42;10.63;;;;;;;;;;5047447;28;20484;-69
2024/01/02 16:14:12;;;;;;;40.00;11.38;;;;;;;;;;5047446;28;20051;-64
2024/01/02 16:17:54;;;;;;;52.33;12.65;;;16.40;99.90;;;;;;5047518;28;20056;-63
2024/01/02 16:20:59;;;;;;;29.58;9.90;;;;;;;;;;5095198;28;20051;-64
2024/01/02 16:24:27;;;;;;;35.13;13.82;;;15.00;99.90;;;;;;5047233;28;20439;-64
2024/01/02 16:27:57;;;;;;;30.73;11.07;;;14.90;99.90;;;;;;5046744;28;20110;-63
2024/01/02 16:31:30;;;;;;;33.45;9.93;;;16.30;99.90;;;;;;5046793;28;20044;-67
2024/01/02 16:35:10;;;;;;;28.92;11.50;;;15.70;99.90;;;;;;5047145;28;20056;-64
2024/01/02 16:38:23;;;;;;;40.47;13.73;;;14.60;99.90;;;;;;5047362;28;20052;-63
2024/01/02 16:41:31;;;;;;;41.53;14.10;;;14.90;99.90;;;;;;5047593;28;20064;-65
2024/01/02 16:44:35;;;;;;;42.55;15.55;;;;;;;;;;5094508;28;20055;-65
2024/01/02 16:47:40;;;;;;;40.85;14.82;;;;;;;;;;5049503;28;20048;-66
2024/01/02 16:51:03;;;;;;;51.70;17.00;;;;;;;;;;5051136;28;20396;-66
2024/01/02 16:54:09;;;;;;;40.25;11.80;;;14.60;99.90;;;;;;5050597;28;20048;-65
2024/01/02 16:57:14;;;;;;;32.38;10.73;;;14.50;99.90;;;;;;5050676;28;20044;-65
2024/01/02 17:00:20;;;;;;;39.22;11.10;;;14.80;99.90;;;;;;5050567;28;20059;-65
2024/01/02 17:03:24;;;;;;;42.13;11.18;;;;;;;;;;5050603;28;20044;-66
2024/01/02 17:06:30;;;;;;;52.70;13.80;;;13.90;99.90;;;;;;5050570;28;20044;-66
2024/01/02 17:09:34;;;;;;;46.30;12.25;;;;;;;;;;5098525;27;20067;-66
2024/01/02 17:12:42;;;;;;;48.70;12.02;;;;;;;;;;5050434;28;20040;-65
2024/01/02 17:15:48;;;;;;;48.35;15.30;;;;;;;;;;5050593;28;20056;-65
2024/01/02 17:18:52;;;;;;;55.20;13.52;;;;;;;;;;5098284;27;20516;-65
2024/01/02 17:21:57;;;;;;;43.25;11.88;;;;;;;;;;5050484;28;20048;-65
2024/01/02 17:25:01;;;;;;;52.22;16.05;;;;;;;;;;5050269;28;20044;-66
2024/01/02 17:28:06;;;;;;;46.95;16.90;;;14.10;99.90;;;;;;5050041;28;20060;-65
2024/01/02 17:31:12;;;;;;;55.65;17.92;;;;;;;;;;5050594;28;20495;-65
2024/01/02 17:34:17;;;;;;;59.85;18.58;;;;;;;;;;5050429;28;20048;-65
2024/01/02 17:37:22;;;;;;;55.30;18.50;;;;;;;;;;5050172;28;20044;-65
2024/01/02 17:40:28;;;;;;;69.05;21.48;;;;;;;;;;5048340;28;20044;-66
2024/01/02 17:43:33;;;;;;;65.65;23.58;;;;;;;;;;5050155;28;20039;-66
2024/01/02 17:46:38;;;;;;;75.13;24.92;;;;;;;;;;5049901;28;20396;-66
2024/01/02 17:49:42;;;;;;;52.28;24.25;;;;;;;;;;5050253;28;20063;-65